Time;durP1;ratioP1;P1;durP2;ratioP2;P2;SDS_P1;SDS_P2;PMS_P1;PMS_P2;Temp;Humidity;BMP_temperature;BMP_pressure;BME280_temperature;BME280_humidity;BME280_pressure;Samples;Min_cycle;Max_cycle;Signal;HPM_P1;HPM_P2
2022/05/09 00:01:26;;;;;;;16.52;4.65;;;;;;;5.36;100.00;102875.13;10486230;28;20052;-72
2022/05/09 00:06:26;;;;;;;16.17;4.82;;;;;;;5.30;100.00;102870.34;10474155;28;20408;-73
2022/05/09 00:11:27;;;;;;;20.58;5.35;;;;;;;5.22;100.00;102862.16;10504296;28;20459;-71
2022/05/09 00:16:33;;;;;;;12.77;4.85;;;;;;;5.09;100.00;102850.91;10502449;28;20033;-72
2022/05/09 00:21:35;;;;;;;18.85;6.03;;;;;;;5.08;100.00;102860.09;10501432;28;20055;-72
2022/05/09 00:26:36;;;;;;;14.50;5.05;;;;;;;5.13;100.00;102869.50;10484720;28;20516;-73
2022/05/09 00:31:37;;;;;;;25.73;7.13;;;;;;;5.00;100.00;102844.56;10500470;28;20048;-73
2022/05/09 00:36:38;;;;;;;16.63;6.18;;;;;;;5.05;100.00;102856.69;10499584;28;20051;-72
2022/05/09 00:41:40;;;;;;;20.63;7.13;;;;;;;5.05;100.00;102867.59;10501676;28;20515;-72
2022/05/09 00:46:51;;;;;;;22.58;7.28;;;;;;;4.98;100.00;102862.97;10484691;28;20096;-72
2022/05/09 00:52:07;;;;;;;26.35;7.13;;;;;;;4.97;100.00;102859.41;10500688;28;20100;-72
2022/05/09 00:57:25;;;;;;;26.08;6.20;;;;;;;4.82;100.00;102842.00;10501002;28;20048;-73
2022/05/09 01:02:26;;;;;;;38.80;10.23;;;;;;;4.34;100.00;102754.44;10464044;28;20048;-71
2022/05/09 01:07:27;;;;;;;37.42;10.27;;;;;;;4.81;100.00;102848.44;10443472;28;20048;-72
2022/05/09 01:12:34;;;;;;;29.83;9.93;;;;;;;4.72;100.00;102833.94;10442129;28;20032;-73
2022/05/09 01:17:39;;;;;;;35.65;10.48;;;;;;;4.77;100.00;102847.94;10457420;28;20512;-72
2022/05/09 01:22:41;;;;;;;30.73;8.35;;;;;;;4.73;100.00;102851.16;10457286;28;20041;-72
2022/05/09 01:27:43;;;;;;;32.63;8.30;;;;;;;4.62;100.00;102825.91;10440795;28;20041;-72
2022/05/09 01:32:52;;;;;;;39.20;11.20;;;;;;;4.61;100.00;102826.94;10441810;28;20147;-72
2022/05/09 01:37:56;;;;;;;27.65;10.80;;;;;;;4.59;100.00;102828.13;10458665;28;20025;-73
2022/05/09 01:42:56;;;;;;;30.05;9.40;;;;;;;4.54;100.00;102825.88;10451548;28;20033;-73
2022/05/09 01:53:16;;;;;;;27.05;9.30;;;;;;;4.44;100.00;102822.44;10483244;28;20041;-73
2022/05/09 01:58:17;;;;;;;30.98;8.98;;;;;;;4.47;100.00;102830.31;10481159;28;20033;-72
2022/05/09 02:03:19;;;;;;;18.73;8.15;;;;;;;4.42;100.00;102824.47;10500802;28;20028;-72
2022/05/09 02:08:19;;;;;;;28.92;9.52;;;;;;;4.38;100.00;102825.81;10496123;28;20036;-73
2022/05/09 02:13:21;;;;;;;20.90;7.07;;;;;;;4.32;100.00;102824.63;10496275;28;20392;-73
2022/05/09 02:18:21;;;;;;;17.90;7.47;;;;;;;4.27;100.00;102817.97;10485949;28;20392;-73
2022/05/09 02:23:22;;;;;;;24.33;7.57;;;;;;;4.25;100.00;102821.69;10457035;28;20037;-73
2022/05/09 02:28:23;;;;;;;20.40;7.53;;;;;;;4.23;100.00;102823.72;10455193;28;20067;-73
2022/05/09 02:33:23;;;;;;;20.58;7.10;;;;;;;4.21;100.00;102830.38;10456125;28;20044;-72
2022/05/09 02:38:24;;;;;;;21.20;7.90;;;;;;;4.17;100.00;102824.38;10454952;28;20033;-72
2022/05/09 02:43:25;;;;;;;20.30;7.18;;;;;;;4.11;100.00;102825.03;10454845;28;20106;-73
2022/05/09 02:48:25;;;;;;;22.25;9.90;;;;;;;4.04;100.00;102813.09;10460523;28;20044;-73
2022/05/09 02:53:26;;;;;;;27.52;9.82;;;;;;;4.01;100.00;102811.56;10495085;28;20515;-72
2022/05/09 02:58:26;;;;;;;19.35;7.85;;;;;;;3.98;100.00;102808.31;10480663;28;20040;-72
2022/05/09 03:08:45;;;;;;;17.98;7.07;;;;;;;3.93;100.00;102816.13;10496314;28;20033;-73
2022/05/09 03:13:46;;;;;;;27.45;8.40;;;;;;;3.89;100.00;102810.13;10497379;28;20037;-73
2022/05/09 03:18:47;;;;;;;19.05;7.57;;;;;;;3.88;100.00;102810.28;10471232;28;20044;-73
2022/05/09 03:23:48;;;;;;;23.55;8.27;;;;;;;3.85;100.00;102814.19;10485468;28;20036;-72
2022/05/09 03:28:48;;;;;;;19.20;7.32;;;;;;;3.40;100.00;102726.28;10502620;28;20381;-71
2022/05/09 03:33:49;;;;;;;21.42;8.77;;;;;;;3.89;100.00;102803.84;10503051;28;20450;-72
2022/05/09 03:38:49;;;;;;;18.58;9.02;;;;;;;3.93;100.00;102805.22;10485982;28;20033;-73
2022/05/09 03:43:50;;;;;;;21.80;8.63;;;;;;;3.96;100.00;102799.44;10502660;28;20044;-73
2022/05/09 03:48:50;;;;;;;23.65;8.20;;;;;;;3.98;100.00;102787.34;10468337;28;20067;-73
2022/05/09 03:53:51;;;;;;;26.23;9.80;;;;;;;3.89;100.00;102774.72;10502721;28;20361;-70
2022/05/09 03:58:51;;;;;;;23.77;8.88;;;;;;;4.00;100.00;102773.56;10504179;28;20044;-72
2022/05/09 04:03:51;;;;;;;25.27;10.30;;;;;;;4.03;100.00;102778.66;10503813;28;20086;-73
2022/05/09 04:08:52;;;;;;;29.75;8.43;;;;;;;4.03;100.00;102763.19;10501681;28;20029;-72
2022/05/09 04:13:52;;;;;;;24.33;9.48;;;;;;;4.13;100.00;102773.94;10501420;28;20098;-73
2022/05/09 04:18:56;;;;;;;20.27;8.25;;;;;;;4.14;100.00;102753.84;10461645;28;20044;-72
2022/05/09 04:23:58;;;;;;;24.38;9.20;;;;;;;4.32;100.00;102763.78;10459681;28;20512;-72
2022/05/09 04:28:59;;;;;;;30.45;8.95;;;;;;;4.35;100.00;102758.84;10444241;28;20037;-72
2022/05/09 04:34:00;;;;;;;22.40;9.65;;;;;;;4.38;100.00;102755.81;10443225;28;20098;-73
2022/05/09 04:39:01;;;;;;;28.15;11.05;;;;;;;4.52;100.00;102754.28;10458082;28;20029;-73
2022/05/09 04:44:03;;;;;;;29.67;9.30;;;;;;;4.65;100.00;102743.72;10442063;28;20045;-73
2022/05/09 04:49:03;;;;;;;24.88;10.15;;;;;;;4.91;100.00;102767.28;10472133;28;20113;-73
2022/05/09 04:54:04;;;;;;;21.15;10.52;;;;;;;5.06;100.00;102767.44;10500518;28;20063;-72
2022/05/09 04:59:05;;;;;;;28.02;11.43;;;;;;;5.13;100.00;102759.44;10501117;28;20124;-73
2022/05/09 05:04:07;;;;;;;28.05;10.88;;;;;;;5.14;100.00;102755.66;10500317;28;20040;-73
2022/05/09 05:09:08;;;;;;;24.08;9.90;;;;;;;5.35;100.00;102752.38;10514611;28;20040;-73
2022/05/09 05:14:08;;;;;;;28.45;12.13;;;;;;;5.46;100.00;102755.63;10500794;28;20483;-73
2022/05/09 05:19:09;;;;;;;32.85;11.32;;;;;;;5.62;100.00;102759.31;10498122;28;20044;-73
2022/05/09 05:24:09;;;;;;;34.10;13.18;;;;;;;5.80;100.00;102764.56;10490837;28;20044;-73
2022/05/09 05:29:10;;;;;;;31.77;12.02;;;;;;;5.96;100.00;102758.22;10457589;28;20048;-73
2022/05/09 05:34:10;;;;;;;25.85;11.23;;;;;;;6.14;100.00;102753.34;10459148;28;20037;-71
2022/05/09 05:39:15;;;;;;;32.13;12.07;;;;;;;6.40;100.00;102763.97;10459092;28;20041;-74
2022/05/09 05:44:15;;;;;;;35.17;11.98;;;;;;;6.67;100.00;102737.94;10440676;28;20045;-73
2022/05/09 05:49:16;;;;;;;41.90;12.32;;;;;;;7.20;100.00;102761.84;10468024;28;20029;-74
2022/05/09 05:54:16;;;;;;;41.33;10.68;;;;;;;7.50;100.00;102742.69;10498654;28;20040;-73
2022/05/09 05:59:17;;;;;;;22.92;8.23;;;;;;;7.97;100.00;102746.94;10499638;28;20396;-73
2022/05/09 06:04:18;;;;;;;25.17;8.57;;;;;;;8.24;100.00;102728.91;10480659;28;20601;-74
2022/05/09 06:09:18;;;;;;;20.70;7.47;;;;;;;8.69;100.00;102744.19;10479866;28;20043;-73
2022/05/09 06:14:19;;;;;;;22.83;8.80;;;;;;;8.97;100.00;102729.69;10496635;28;20523;-73
2022/05/09 06:19:21;;;;;;;25.60;8.02;;;;;;;9.37;100.00;102751.97;10495639;28;20040;-73
2022/05/09 06:24:21;;;;;;;34.22;8.57;;;;;;;9.65;100.00;102748.34;10453054;28;20087;-73
2022/05/09 06:29:23;;;;;;;27.92;7.75;;;;;;;9.93;100.00;102739.19;10459856;28;20062;-73
2022/05/09 06:34:23;;;;;;;17.75;6.47;;;;;;;10.16;100.00;102728.69;10496351;28;20032;-72
2022/05/09 06:39:24;;;;;;;15.57;6.50;;;;;;;10.36;100.00;102723.28;10495164;28;20036;-70
2022/05/09 06:44:24;;;;;;;11.40;5.47;;;;;;;10.48;100.00;102720.78;10494697;28;20093;-73
2022/05/09 06:49:25;;;;;;;16.23;5.50;;;;;;;10.70;100.00;102703.00;10492686;28;20104;-74
2022/05/09 06:54:25;;;;;;;19.40;6.60;;;;;;;11.01;100.00;102708.97;10478264;28;20207;-74
2022/05/09 06:59:26;;;;;;;18.02;6.25;;;;;;;11.27;100.00;102703.44;10495591;28;20032;-76
2022/05/09 07:04:27;;;;;;;16.85;7.13;;;;;;;11.48;100.00;102695.97;10483700;28;20058;-73
2022/05/09 07:09:27;;;;;;;15.35;6.07;;;;;;;11.97;100.00;102705.59;10480211;28;20064;-74
2022/05/09 07:14:27;;;;;;;15.75;6.65;;;;;;;12.15;100.00;102688.28;10460863;28;20033;-74
2022/05/09 07:19:28;;;;;;;14.48;5.72;;;;;;;12.44;100.00;102694.28;10461881;28;20167;-74
2022/05/09 07:24:28;;;;;;;13.90;4.93;;;;;;;12.64;100.00;102675.66;10464291;28;20041;-74
2022/05/09 07:29:29;;;;;;;12.40;4.93;;;;;;;13.00;100.00;102682.41;10460682;28;20045;-71
2022/05/09 07:34:29;;;;;;;14.75;4.38;;;;;;;13.23;100.00;102665.16;10463518;28;20049;-74
2022/05/09 07:39:31;;;;;;;12.55;4.97;;;;;;;13.40;100.00;102668.19;10463162;28;20143;-73
2022/05/09 07:44:32;;;;;;;13.70;5.55;;;;;;;13.65;100.00;102670.03;10443819;28;20047;-73
2022/05/09 07:49:32;;;;;;;13.00;4.20;;;;;;;13.93;100.00;102670.34;10477595;28;20040;-73
2022/05/09 07:54:33;;;;;;;10.23;4.65;;;;;;;14.24;100.00;102667.56;10462416;28;20052;-73
2022/05/09 07:59:34;;;;;;;12.15;4.43;;;;;;;14.40;100.00;102654.97;10458998;28;20045;-73
2022/05/09 08:04:35;;;;;;;14.80;5.82;;;;;;;14.52;99.93;102647.53;10460089;28;20045;-74
2022/05/09 08:09:35;;;;;;;15.00;5.75;;;;;;;14.81;98.25;102650.50;10459818;28;20066;-74
2022/05/09 08:14:36;;;;;;;11.93;4.45;;;;;;;15.03;92.53;102634.97;10459798;28;20033;-73
2022/05/09 08:19:38;;;;;;;16.25;4.15;;;;;;;15.18;92.27;102628.09;10459764;28;20033;-73
2022/05/09 08:24:38;;;;;;;14.35;4.78;;;;;;;15.50;90.69;102637.69;10460730;28;20033;-74
2022/05/09 08:29:39;;;;;;;10.20;3.60;;;;;;;15.55;84.59;102611.97;10459317;28;20556;-73
2022/05/09 08:34:39;;;;;;;8.60;3.38;;;;;;;15.89;83.35;102637.94;10459111;28;20120;-75
2022/05/09 08:39:39;;;;;;;9.63;3.42;;;;;;;16.02;84.35;102616.53;10472812;28;20044;-71
2022/05/09 08:44:57;;;;;;;14.98;3.20;;;;;;;16.40;76.02;102606.66;10497896;28;20045;-76
2022/05/09 08:50:04;;;;;;;16.90;3.72;;;;;;;16.62;77.89;102618.72;10461573;28;20116;-73
2022/05/09 08:55:05;;;;;;;12.15;5.38;;;;;;;16.89;75.79;102607.78;10482630;28;20453;-72
2022/05/09 09:00:11;;;;;;;12.05;3.55;;;;;;;17.12;76.00;102603.94;10462368;28;20096;-75
2022/05/09 09:05:21;;;;;;;8.37;3.00;;;;;;;17.41;72.29;102606.56;10465870;28;20410;-75
2022/05/09 09:10:25;;;;;;;13.20;3.45;;;;;;;17.58;70.77;102589.78;10440535;28;20731;-75
2022/05/09 09:15:44;;;;;;;11.27;3.58;;;;;;;17.84;69.72;102593.75;10458399;28;20057;-74
2022/05/09 09:20:54;;;;;;;10.45;3.38;;;;;;;18.05;66.96;102582.81;10459362;28;20071;-74
2022/05/09 09:26:09;;;;;;;12.00;3.00;;;;;;;18.29;64.68;102581.38;10458389;28;20037;-74
2022/05/09 09:31:10;;;;;;;6.95;2.70;;;;;;;18.47;65.37;102579.28;10456257;28;20033;-73
2022/05/09 09:36:12;;;;;;;10.82;3.58;;;;;;;18.58;63.80;102553.16;10422409;28;20041;-73
2022/05/09 09:41:26;;;;;;;12.82;3.25;;;;;;;18.89;63.29;102564.56;10455560;28;20424;-73
2022/05/09 09:46:26;;;;;;;9.63;3.15;;;;;;;18.93;63.25;102560.09;10472797;28;20040;-74
2022/05/09 09:51:26;;;;;;;9.32;3.25;;;;;;;19.20;60.78;102543.22;10454802;28;20512;-74
2022/05/09 09:56:31;;;;;;;10.73;2.60;;;;;;;19.38;60.24;102533.53;10455026;28;20508;-74
2022/05/09 10:01:33;;;;;;;11.15;2.65;;;;;;;19.75;58.02;102532.56;10461054;28;20044;-73
2022/05/09 10:06:34;;;;;;;7.82;2.67;;;;;;;19.93;56.19;102520.84;10498732;28;20036;-72
2022/05/09 10:11:34;;;;;;;5.50;1.73;;;;;;;19.90;54.33;102506.59;10481636;28;20028;-73
2022/05/09 10:16:41;;;;;;;5.13;1.75;;;;;;;20.12;55.36;102517.50;10496474;28;20108;-70
2022/05/09 10:27:02;;;;;;;8.38;2.40;;;;;;;20.53;52.42;102487.53;10445686;28;20040;-67
2022/05/09 10:32:04;;;;;;;9.82;2.20;;;;;;;20.48;52.10;102472.72;10493603;28;20040;-67
2022/05/09 10:37:55;;;;;;;6.65;1.80;;;;;;;20.81;52.48;102481.63;10494476;28;20040;-67
2022/05/09 10:43:18;;;;;;;6.28;1.60;;;;;;;20.98;51.76;102464.47;10405572;28;20406;-69
2022/05/09 10:48:27;;;;;;;6.72;1.65;;;;;;;21.05;50.36;102465.84;10427285;28;22588;-71
2022/05/09 10:53:40;;;;;;;3.40;1.15;;;;;;;21.31;50.04;102451.72;10460979;28;20408;-70
2022/05/09 10:58:42;;;;;;;7.10;1.95;;;;;;;21.60;47.64;102429.44;10463252;28;20120;-70
2022/05/09 11:03:44;;;;;;;6.45;1.45;;;;;;;21.76;48.77;102439.38;10459803;28;20044;-70
2022/05/09 11:08:45;;;;;;;6.32;1.83;;;;;;;22.02;48.60;102430.78;10459880;28;20103;-71
2022/05/09 11:13:55;;;;;;;4.90;1.50;;;;;;;22.19;50.78;102433.13;10492075;28;20037;-71
2022/05/09 11:19:29;;;;;;;4.68;1.60;;;;;;;22.52;47.45;102413.72;10468482;28;20041;-71
2022/05/09 11:24:33;;;;;;;5.85;1.73;;;;;;;22.60;47.88;102412.25;10468004;28;20103;-70
2022/05/09 11:29:36;;;;;;;5.68;1.65;;;;;;;22.79;47.32;102406.69;10493209;28;20048;-68
2022/05/09 11:35:07;;;;;;;9.75;3.03;;;;;;;22.98;45.18;102385.06;10460708;28;20473;-68
2022/05/09 11:40:32;;;;;;;7.28;2.03;;;;;;;23.37;46.93;102384.78;10478190;28;20048;-70
2022/05/09 11:45:46;;;;;;;8.43;2.50;;;;;;;23.71;44.70;102365.97;10494661;28;20060;-71
2022/05/09 11:51:12;;;;;;;3.33;1.30;;;;;;;24.44;46.13;102355.09;10476946;28;20100;-70
2022/05/09 11:56:13;;;;;;;4.53;1.80;;;;;;;24.91;45.31;102365.06;10471042;28;20041;-68
2022/05/09 12:01:13;;;;;;;5.18;2.00;;;;;;;25.47;42.75;102343.19;10465991;28;20071;-69
2022/05/09 12:06:50;;;;;;;9.15;1.85;;;;;;;25.60;42.91;102341.44;10466654;28;20039;-66
2022/05/09 12:11:51;;;;;;;6.20;1.98;;;;;;;25.78;42.15;102331.13;10368991;28;20063;-66
2022/05/09 12:16:52;;;;;;;5.18;2.00;;;;;;;26.37;40.63;102323.25;10480966;28;20048;-65
2022/05/09 12:22:30;;;;;;;6.38;2.20;;;;;;;26.43;38.96;102309.00;10464924;28;20041;-66
2022/05/09 12:27:42;;;;;;;9.57;2.17;;;;;;;26.91;38.80;102313.75;10489183;28;20059;-70
2022/05/09 12:32:42;;;;;;;9.77;2.40;;;;;;;27.01;39.24;102295.66;10485728;28;20096;-69
2022/05/09 12:37:44;;;;;;;6.22;1.85;;;;;;;27.81;37.01;102295.22;10467389;28;20045;-70
2022/05/09 12:42:46;;;;;;;7.05;2.33;;;;;;;27.53;36.16;102287.13;10482879;28;20043;-70
2022/05/09 12:47:47;;;;;;;5.68;1.88;;;;;;;27.56;36.64;102286.47;10466255;28;20044;-70
2022/05/09 12:52:50;;;;;;;6.88;1.55;;;;;;;26.81;36.31;102224.53;10449545;28;20037;-69
2022/05/09 12:57:50;;;;;;;6.40;1.77;;;;;;;27.18;36.75;102282.34;10466364;28;20503;-70
2022/05/09 13:02:51;;;;;;;9.65;1.85;;;;;;;27.77;35.38;102264.75;10483695;28;20025;-71
2022/05/09 13:07:59;;;;;;;5.45;1.80;;;;;;;27.57;35.88;102266.31;10479632;28;20073;-71
2022/05/09 13:13:05;;;;;;;3.83;1.42;;;;;;;28.22;36.94;102280.41;10464960;28;20055;-73
2022/05/09 13:18:06;;;;;;;4.60;1.98;;;;;;;28.89;35.15;102257.97;10497012;28;20051;-70
2022/05/09 13:23:07;;;;;;;6.15;2.00;;;;;;;28.37;35.16;102248.66;10479758;28;20404;-71
2022/05/09 13:28:10;;;;;;;7.90;1.70;;;;;;;28.40;35.75;102246.31;10481730;28;20166;-70
2022/05/09 13:33:30;;;;;;;11.25;1.98;;;;;;;28.94;36.64;102232.22;10498046;28;20050;-71
2022/05/09 13:38:32;;;;;;;6.93;2.33;;;;;;;28.34;35.03;102226.69;10463017;28;20032;-70
2022/05/09 13:43:39;;;;;;;9.07;2.28;;;;;;;28.40;34.66;102224.47;10462849;28;20045;-69
2022/05/09 13:48:39;;;;;;;5.28;1.90;;;;;;;28.63;33.68;102210.00;10476951;28;20040;-71
2022/05/09 13:53:43;;;;;;;7.18;2.17;;;;;;;28.92;33.83;102192.06;10437737;28;20041;-70
2022/05/09 13:58:43;;;;;;;8.77;2.38;;;;;;;28.51;35.05;102202.28;10479459;28;20033;-69
2022/05/09 14:03:46;;;;;;;6.65;2.85;;;;;;;28.12;35.50;102201.53;10461532;28;20480;-70
2022/05/09 14:08:48;;;;;;;7.63;1.92;;;;;;;28.67;35.64;102188.28;10459397;28;20125;-69
2022/05/09 14:13:49;;;;;;;7.55;2.60;;;;;;;29.22;33.43;102174.94;10476989;28;20051;-69
2022/05/09 14:19:08;;;;;;;6.15;2.08;;;;;;;29.15;34.70;102190.53;10491981;28;20037;-69
2022/05/09 14:24:10;;;;;;;6.35;2.00;;;;;;;28.89;33.62;102170.09;10493866;28;20048;-68
2022/05/09 14:34:34;;;;;;;10.85;2.83;;;;;;;28.81;34.97;102142.66;10476686;28;20656;-68
2022/05/09 14:39:40;;;;;;;5.88;2.83;;;;;;;28.84;33.58;102130.63;10477496;28;20051;-69
2022/05/09 14:44:41;;;;;;;4.75;2.00;;;;;;;28.99;33.60;102107.28;10444568;28;20062;-68
2022/05/09 14:50:10;;;;;;;8.85;1.70;;;;;;;29.69;32.03;102098.72;10442217;28;20036;-66
2022/05/09 15:00:52;;;;;;;5.90;2.10;;;;;;;29.23;31.48;102085.84;10486619;28;20098;-69
2022/05/09 15:05:53;;;;;;;4.10;1.63;;;;;;;29.46;31.90;102070.03;10475705;28;20032;-72
2022/05/09 15:10:56;;;;;;;5.65;1.58;;;;;;;29.74;31.94;102067.28;10457396;28;20458;-69
2022/05/09 15:15:59;;;;;;;3.70;1.85;;;;;;;30.16;32.28;102066.13;10478155;28;20508;-69
2022/05/09 15:21:02;;;;;;;9.90;2.10;;;;;;;30.60;31.15;102069.03;10455287;28;20056;-69
2022/05/09 15:26:02;;;;;;;4.47;1.70;;;;;;;30.47;30.35;102064.59;10483612;28;20059;-68
2022/05/09 15:31:11;;;;;;;7.10;2.25;;;;;;;30.41;30.83;102046.16;10482846;28;20044;-69
2022/05/09 15:36:11;;;;;;;3.63;1.50;;;;;;;31.14;29.99;102037.19;10475400;28;20044;-68
2022/05/09 15:41:13;;;;;;;5.15;1.20;;;;;;;31.04;28.58;102026.38;10483580;28;20044;-68
2022/05/09 15:46:13;;;;;;;4.18;1.50;;;;;;;30.44;28.74;102031.25;10467789;28;20103;-69
2022/05/09 15:51:14;;;;;;;4.85;2.00;;;;;;;30.85;27.76;102017.72;10484797;28;20074;-68
2022/05/09 15:56:15;;;;;;;3.58;1.35;;;;;;;31.67;28.93;102034.00;10501383;28;20028;-68
2022/05/09 16:01:18;;;;;;;4.85;1.40;;;;;;;31.00;26.28;102008.38;10483788;28;20113;-68
2022/05/09 16:11:39;;;;;;;3.17;1.30;;;;;;;28.85;28.95;102014.06;10503172;28;20051;-67
2022/05/09 16:16:42;;;;;;;5.90;1.58;;;;;;;28.87;29.49;102016.56;10466571;28;20522;-69
2022/05/09 16:21:43;;;;;;;5.78;1.63;;;;;;;29.55;29.09;102007.47;10482920;28;20045;-69
2022/05/09 16:26:43;;;;;;;6.30;1.65;;;;;;;29.25;29.78;102015.41;10501170;28;20508;-69
2022/05/09 16:31:44;;;;;;;12.48;2.15;;;;;;;27.88;31.73;102030.34;10498633;28;20036;-69
2022/05/09 16:36:44;;;;;;;5.80;1.77;;;;;;;27.47;31.69;102031.94;10470566;28;20098;-69
2022/05/09 16:41:45;;;;;;;9.02;1.95;;;;;;;27.82;32.14;102013.88;10478671;28;20033;-69
2022/05/09 16:46:45;;;;;;;7.43;1.70;;;;;;;27.10;31.61;102020.31;10455858;28;20037;-69
2022/05/09 16:51:46;;;;;;;3.38;1.42;;;;;;;26.68;32.52;102024.94;10441019;28;20041;-69
2022/05/09 16:56:46;;;;;;;9.90;1.67;;;;;;;26.07;33.42;102017.38;10441021;28;20037;-69
2022/05/09 17:01:47;;;;;;;7.85;2.13;;;;;;;25.75;34.20;102021.47;10423829;28;20048;-69
2022/05/09 17:06:47;;;;;;;8.02;1.60;;;;;;;24.77;35.73;102021.50;10426203;28;20049;-68
2022/05/09 17:11:48;;;;;;;7.13;1.35;;;;;;;24.16;35.86;102017.41;10462668;28;20033;-68
2022/05/09 17:16:48;;;;;;;8.38;1.80;;;;;;;23.79;37.17;102016.59;10463607;28;20522;-69
2022/05/09 17:21:49;;;;;;;6.45;1.60;;;;;;;23.62;37.77;102030.47;10480296;28;20040;-69
2022/05/09 17:26:50;;;;;;;4.45;1.42;;;;;;;23.37;37.53;102029.88;10496019;28;20041;-69
2022/05/09 17:31:51;;;;;;;4.78;1.58;;;;;;;23.03;39.40;102028.34;10497213;28;20033;-66
2022/05/09 17:42:11;;;;;;;9.70;1.67;;;;;;;22.46;40.04;102033.28;10495681;28;20162;-70
2022/05/09 17:47:11;;;;;;;6.18;1.42;;;;;;;22.20;40.31;102030.03;10479800;28;20044;-70
2022/05/09 17:52:12;;;;;;;5.13;1.38;;;;;;;22.03;41.11;102041.81;10479645;28;20054;-70
2022/05/09 17:57:18;;;;;;;8.55;1.63;;;;;;;21.69;41.30;102026.06;10442281;28;20064;-70
2022/05/09 18:02:22;;;;;;;10.40;1.63;;;;;;;21.50;41.74;102034.44;10477200;28;20073;-70
2022/05/09 18:07:23;;;;;;;7.50;1.27;;;;;;;21.20;42.89;102030.00;10479249;28;20355;-69
2022/05/09 18:12:25;;;;;;;7.57;1.30;;;;;;;20.97;44.44;102035.31;10494823;28;20033;-69
2022/05/09 18:17:29;;;;;;;6.05;1.50;;;;;;;20.63;45.65;102029.78;10462965;28;20033;-70
2022/05/09 18:22:32;;;;;;;5.72;1.20;;;;;;;20.19;49.45;102036.28;10480040;28;20051;-69
2022/05/09 18:27:34;;;;;;;4.13;1.90;;;;;;;19.77;52.20;102052.50;10496130;28;20074;-70
2022/05/09 18:32:34;;;;;;;7.90;2.10;;;;;;;19.40;55.25;102070.50;10480471;28;20096;-69
2022/05/09 18:37:45;;;;;;;12.38;2.50;;;;;;;19.08;59.33;102082.91;10446234;28;20508;-70
2022/05/09 18:42:46;;;;;;;12.07;2.53;;;;;;;18.66;63.65;102085.97;10477791;28;20048;-70
2022/05/09 18:47:46;;;;;;;7.78;2.50;;;;;;;18.23;65.29;102083.47;10493783;28;20577;-69
2022/05/09 18:52:47;;;;;;;13.02;3.30;;;;;;;17.97;67.32;102092.88;10460986;28;20063;-71
2022/05/09 18:57:50;;;;;;;9.35;2.92;;;;;;;17.77;69.59;102093.63;10479381;28;20110;-71
2022/05/09 19:02:51;;;;;;;10.25;2.50;;;;;;;17.33;74.51;102080.91;10470920;28;20423;-71
2022/05/09 19:07:57;;;;;;;6.32;2.60;;;;;;;17.08;76.40;102096.34;10469669;28;20041;-72
2022/05/09 19:12:58;;;;;;;10.13;2.72;;;;;;;16.51;79.49;102047.78;10471784;28;20052;-72
2022/05/09 19:17:58;;;;;;;13.65;3.83;;;;;;;16.59;81.08;102098.44;10463574;28;20055;-72
2022/05/09 19:22:59;;;;;;;10.32;3.00;;;;;;;16.38;84.11;102112.16;10463012;28;20461;-73
2022/05/09 19:28:00;;;;;;;7.53;2.67;;;;;;;16.11;88.27;102120.50;10442820;28;20037;-72
2022/05/09 19:33:00;;;;;;;13.70;3.95;;;;;;;15.39;92.02;102054.94;10447359;28;20041;-72
2022/05/09 19:38:01;;;;;;;8.38;2.97;;;;;;;15.54;96.02;102111.50;10464089;28;20064;-72
2022/05/09 19:43:04;;;;;;;8.27;3.13;;;;;;;15.43;99.20;102136.56;10458043;28;20052;-72
2022/05/09 19:48:06;;;;;;;7.65;3.63;;;;;;;15.32;100.00;102146.69;10429721;28;20144;-72
2022/05/09 19:58:26;;;;;;;7.15;3.25;;;;;;;15.13;100.00;102152.53;10470231;28;20051;-71
2022/05/09 20:03:26;;;;;;;9.13;3.38;;;;;;;15.08;100.00;102141.34;10453109;28;20117;-72
2022/05/09 20:08:28;;;;;;;12.48;4.60;;;;;;;14.96;100.00;102146.13;10466657;28;20032;-72
2022/05/09 20:13:32;;;;;;;9.15;3.20;;;;;;;14.75;100.00;102138.59;10466831;28;20051;-72
2022/05/09 20:18:32;;;;;;;9.73;3.92;;;;;;;14.54;100.00;102124.34;10463009;28;20041;-71
2022/05/09 20:23:32;;;;;;;8.00;3.22;;;;;;;14.41;100.00;102119.97;10432718;28;20060;-71
2022/05/09 20:33:54;;;;;;;9.75;3.83;;;;;;;14.28;100.00;102126.66;10457497;28;20060;-72
2022/05/09 20:39:00;;;;;;;7.53;3.53;;;;;;;14.12;100.00;102119.16;10443736;28;20040;-71
2022/05/09 20:44:04;;;;;;;8.90;3.50;;;;;;;14.00;100.00;102116.44;10486506;28;20112;-72
2022/05/09 20:49:05;;;;;;;7.60;3.47;;;;;;;13.81;100.00;102104.72;10447317;28;20045;-72
2022/05/09 20:54:06;;;;;;;9.77;3.45;;;;;;;13.63;100.00;102091.88;10451822;28;20037;-72
2022/05/09 20:59:06;;;;;;;9.55;3.85;;;;;;;13.58;100.00;102093.69;10441477;28;20036;-72
2022/05/09 21:04:07;;;;;;;9.23;3.45;;;;;;;13.42;100.00;102085.09;10457487;28;20040;-72
2022/05/09 21:09:11;;;;;;;12.60;4.93;;;;;;;13.32;100.00;102087.63;10440675;28;20044;-72
2022/05/09 21:14:11;;;;;;;8.30;3.45;;;;;;;13.22;100.00;102070.78;10457308;28;20044;-72
2022/05/09 21:19:11;;;;;;;17.63;6.05;;;;;;;13.13;100.00;102079.44;10456075;28;20059;-72
2022/05/09 21:24:12;;;;;;;9.75;4.50;;;;;;;13.07;100.00;102083.19;10441102;28;20052;-71
2022/05/09 21:29:13;;;;;;;14.70;5.32;;;;;;;12.65;100.00;102030.81;10439655;28;20040;-72
2022/05/09 21:34:13;;;;;;;11.20;5.70;;;;;;;12.87;100.00;102077.19;10440077;28;20080;-72
2022/05/09 21:44:39;;;;;;;11.93;6.82;;;;;;;12.65;100.00;102052.91;10442939;28;20064;-72
2022/05/09 21:49:40;;;;;;;14.73;6.80;;;;;;;12.53;100.00;102038.25;10409180;28;20029;-71
2022/05/09 21:54:41;;;;;;;14.45;6.78;;;;;;;12.54;100.00;102045.44;10456494;28;20052;-72
2022/05/09 21:59:42;;;;;;;16.52;8.07;;;;;;;12.46;100.00;102041.13;10438806;28;20040;-72
2022/05/09 22:04:43;;;;;;;18.63;9.68;;;;;;;12.38;100.00;102026.81;10462889;28;20044;-72
2022/05/09 22:09:50;;;;;;;23.33;10.80;;;;;;;12.41;100.00;102021.66;10480255;28;20040;-72
2022/05/09 22:14:50;;;;;;;16.10;10.48;;;;;;;12.43;100.00;102015.91;10480661;28;20040;-72
2022/05/09 22:19:51;;;;;;;19.38;10.23;;;;;;;12.43;100.00;102010.38;10464830;28;20468;-72
2022/05/09 22:24:51;;;;;;;18.38;9.27;;;;;;;12.25;100.00;101990.06;10495658;28;20039;-72
2022/05/09 22:29:52;;;;;;;16.02;9.48;;;;;;;12.28;100.00;101986.84;10462393;28;20043;-72
2022/05/09 22:34:53;;;;;;;21.95;10.00;;;;;;;12.27;100.00;101990.66;10423158;28;20049;-73
2022/05/09 22:39:53;;;;;;;13.30;8.75;;;;;;;12.28;100.00;101986.00;10437958;28;20060;-73
2022/05/09 22:45:01;;;;;;;14.95;8.38;;;;;;;12.29;100.00;101979.38;10455255;28;20033;-73
2022/05/09 22:50:02;;;;;;;19.95;9.18;;;;;;;12.26;100.00;101975.19;10482576;28;20518;-73
2022/05/09 22:55:04;;;;;;;15.60;9.00;;;;;;;12.22;100.00;101962.94;10478161;28;20037;-73
2022/05/09 23:00:06;;;;;;;18.52;9.15;;;;;;;12.11;100.00;101956.34;10494847;28;20452;-73
2022/05/09 23:05:07;;;;;;;15.55;7.25;;;;;;;12.17;100.00;101957.28;10446124;28;20395;-73
2022/05/09 23:10:08;;;;;;;13.55;8.25;;;;;;;12.12;100.00;101959.91;10439799;28;20044;-71
2022/05/09 23:15:10;;;;;;;19.08;8.32;;;;;;;12.03;100.00;101948.41;10438240;28;20057;-72
2022/05/09 23:20:16;;;;;;;19.83;8.63;;;;;;;12.05;100.00;101948.13;10467072;28;20524;-73
2022/05/09 23:25:17;;;;;;;19.75;8.65;;;;;;;11.96;100.00;101930.25;10462179;28;20408;-73
2022/05/09 23:30:20;;;;;;;17.30;7.13;;;;;;;12.02;100.00;101943.09;10461288;28;20412;-72
2022/05/09 23:35:25;;;;;;;15.43;8.38;;;;;;;11.99;100.00;101922.34;10478628;28;20456;-72
2022/05/09 23:40:26;;;;;;;20.10;8.38;;;;;;;11.92;100.00;101910.56;10478999;28;20033;-73
2022/05/09 23:45:30;;;;;;;13.13;8.05;;;;;;;11.93;100.00;101905.88;10468124;28;20154;-72
2022/05/09 23:50:41;;;;;;;18.30;7.47;;;;;;;12.08;100.00;101918.16;10468358;28;20052;-72